createdAt,value
2022-08-25T00:00:01.967Z,1460
2022-08-25T00:15:06.359Z,1506
2022-08-25T00:30:03.018Z,1548
2022-08-25T00:45:02.070Z,1585
2022-08-25T01:00:03.355Z,1620
2022-08-25T01:15:06.009Z,1650
2022-08-25T01:30:06.294Z,1675
2022-08-25T01:45:03.972Z,1703
2022-08-25T02:00:06.056Z,1730
2022-08-25T02:15:05.297Z,1752
2022-08-25T02:30:04.220Z,1774
2022-08-25T02:45:02.232Z,1800
2022-08-25T03:00:03.966Z,1811
2022-08-25T03:15:04.071Z,1827
2022-08-25T03:30:05.102Z,1852
2022-08-25T03:45:04.990Z,1642
2022-08-25T04:00:04.453Z,1386
2022-08-25T04:15:05.518Z,1135
2022-08-25T04:30:06.321Z,871
2022-08-25T04:45:02.031Z,597
2022-08-25T05:00:04.264Z,555
2022-08-25T05:15:02.310Z,549
2022-08-25T05:30:06.098Z,552
2022-08-25T05:45:02.317Z,579
2022-08-25T06:00:02.049Z,606
2022-08-25T06:15:05.438Z,633
2022-08-25T06:30:04.344Z,656
2022-08-25T06:45:05.397Z,665
2022-08-25T07:00:04.302Z,653
2022-08-25T07:15:04.255Z,639
2022-08-25T07:30:04.349Z,615
2022-08-25T07:45:02.362Z,600
2022-08-25T08:00:03.061Z,585
2022-08-25T08:15:03.234Z,573
2022-08-25T08:30:05.404Z,559
2022-08-25T08:45:04.275Z,544
2022-08-25T09:00:04.377Z,529
2022-08-25T09:15:05.124Z,521
2022-08-25T09:30:04.573Z,523
2022-08-25T09:45:06.555Z,533
2022-08-25T10:00:02.272Z,559
2022-08-25T10:15:06.014Z,585
2022-08-25T10:30:02.301Z,639
2022-08-25T10:45:03.064Z,667
2022-08-25T11:00:03.281Z,679
2022-08-25T11:15:06.379Z,676
2022-08-25T11:30:04.977Z,670
2022-08-25T11:45:06.207Z,631
2022-08-25T12:00:04.480Z,611
2022-08-25T12:15:08.911Z,598
2022-08-25T12:30:02.007Z,597
2022-08-25T12:45:04.396Z,603
2022-08-25T13:00:03.186Z,628
2022-08-25T13:15:05.228Z,647
2022-08-25T13:30:04.712Z,676
2022-08-25T13:45:06.215Z,701
2022-08-25T14:00:02.176Z,723
2022-08-25T14:15:04.412Z,733
2022-08-25T14:30:05.379Z,738
2022-08-25T14:45:03.174Z,731
2022-08-25T15:00:02.156Z,717
2022-08-25T15:15:03.454Z,691
2022-08-25T15:30:02.419Z,663
2022-08-25T15:45:03.209Z,634
2022-08-25T16:00:06.280Z,624
2022-08-25T16:15:03.521Z,609
2022-08-25T16:30:03.356Z,597
2022-08-25T16:45:02.479Z,591
2022-08-25T17:00:05.545Z,594
2022-08-25T17:15:02.336Z,584
2022-08-25T17:30:02.386Z,588
2022-08-25T17:45:03.043Z,597
2022-08-25T18:00:05.541Z,602
2022-08-25T18:30:06.457Z,615
2022-08-25T18:45:05.100Z,616
2022-08-25T19:00:03.401Z,616
2022-08-25T19:15:06.487Z,614
2022-08-25T19:30:04.279Z,620
2022-08-25T19:45:06.021Z,627
2022-08-25T20:00:02.296Z,636
2022-08-25T20:15:03.232Z,644
2022-08-25T20:30:06.227Z,656
2022-08-25T20:45:04.231Z,659
2022-08-25T21:00:04.022Z,661
2022-08-25T21:15:02.303Z,662
2022-08-25T21:30:05.351Z,665
2022-08-25T21:45:06.377Z,668
2022-08-25T22:00:02.499Z,677
2022-08-25T22:15:02.416Z,695
2022-08-25T22:30:03.045Z,725
2022-08-25T22:45:03.432Z,763
2022-08-25T23:00:06.278Z,805
2022-08-25T23:15:04.267Z,849
2022-08-25T23:30:06.268Z,899
2022-08-25T23:45:03.417Z,942
